createdAt,value
2018-10-02T00:03:33.632Z,100548.69
2018-10-02T00:08:37.060Z,100550.80
2018-10-02T00:14:43.531Z,100545.64
2018-10-02T00:19:46.945Z,100546.50
2018-10-02T00:24:50.380Z,100551.59
2018-10-02T00:29:53.807Z,100547.09
2018-10-02T00:34:57.272Z,100549.25
2018-10-02T00:40:00.756Z,100538.27
2018-10-02T00:45:04.336Z,100554.11
2018-10-02T00:50:07.740Z,100556.77
2018-10-02T00:55:11.207Z,100557.62
2018-10-02T01:00:14.676Z,100561.98
2018-10-02T01:05:18.116Z,100562.71
2018-10-02T01:10:21.575Z,100561.48
2018-10-02T01:15:25.027Z,100559.50
2018-10-02T01:20:28.464Z,100558.28
2018-10-02T01:25:31.912Z,100555.84
2018-10-02T01:30:35.347Z,100556.81
2018-10-02T01:35:38.801Z,100556.81
2018-10-02T01:40:42.256Z,100559.70
2018-10-02T01:45:45.774Z,100566.05
2018-10-02T01:50:49.216Z,100562.27
2018-10-02T01:55:52.644Z,100566.41
2018-10-02T02:00:56.085Z,100566.16
2018-10-02T02:05:59.527Z,100565.30
2018-10-02T02:11:02.960Z,100570.27
2018-10-02T02:16:06.431Z,100567.71
2018-10-02T02:21:09.866Z,100571.25
2018-10-02T02:26:13.317Z,100575.52
2018-10-02T02:31:16.764Z,100582.71
2018-10-02T02:36:20.215Z,100579.78
2018-10-02T02:41:23.668Z,100595.88
2018-10-02T02:46:27.148Z,100596.94
2018-10-02T02:51:32.819Z,100595.34
2018-10-02T02:56:36.245Z,100588.39
2018-10-02T03:01:39.694Z,100581.20
2018-10-02T03:06:43.116Z,100581.69
2018-10-02T03:11:46.560Z,100575.58
2018-10-02T03:16:49.979Z,100574.23
2018-10-02T03:21:53.477Z,100575.78
2018-10-02T03:26:56.844Z,100575.78
2018-10-02T03:32:00.265Z,100583.47
2018-10-02T03:37:03.685Z,100579.19
2018-10-02T03:42:07.107Z,100580.53
2018-10-02T03:47:10.533Z,100580.77
2018-10-02T03:52:13.960Z,100581.88
2018-10-02T03:57:17.508Z,100569.31
2018-10-02T04:02:20.948Z,100568.77
2018-10-02T04:07:24.402Z,100569.75
2018-10-02T04:12:27.833Z,100569.50
2018-10-02T04:17:31.297Z,100576.69
2018-10-02T04:22:34.752Z,100579.13
2018-10-02T04:27:38.565Z,100580.09
2018-10-02T04:32:42.080Z,100580.66
2018-10-02T04:37:45.512Z,100585.29
2018-10-02T04:42:48.916Z,100591.62
2018-10-02T04:47:54.144Z,100597.08
2018-10-02T04:52:57.571Z,100596.83
2018-10-02T04:58:01.011Z,100607.19
2018-10-02T05:03:04.444Z,100597.14
2018-10-02T05:08:07.868Z,100598.11
2018-10-02T05:13:11.327Z,100604.93
2018-10-02T05:18:14.737Z,100608.21
2018-10-02T05:23:18.155Z,100616.74
2018-10-02T05:28:21.612Z,100613.29
2018-10-02T05:33:25.075Z,100613.29
2018-10-02T05:38:28.508Z,100616.57
2018-10-02T05:43:31.940Z,100619.73
2018-10-02T05:48:35.393Z,100628.64
2018-10-02T05:53:38.859Z,100623.98
2018-10-02T05:58:42.339Z,100632.89
2018-10-02T06:03:45.774Z,100630.58
2018-10-02T06:08:49.208Z,100631.92
2018-10-02T06:13:52.689Z,100633.75
2018-10-02T06:18:56.122Z,100638.62
2018-10-02T06:23:59.560Z,100639.97
2018-10-02T06:29:02.989Z,100643.50
2018-10-02T06:34:06.429Z,100641.67
2018-10-02T06:39:09.912Z,100643.87
2018-10-02T06:44:13.343Z,100636.31
2018-10-02T06:49:16.811Z,100645.44
2018-10-02T06:54:20.247Z,100678.47
2018-10-02T06:59:23.673Z,100690.84
2018-10-02T07:04:27.101Z,100692.27
2018-10-02T07:09:30.512Z,100685.67
2018-10-02T07:14:33.981Z,100695.47
2018-10-02T07:19:37.437Z,100677.63
2018-10-02T07:24:40.853Z,100663.73
2018-10-02T07:29:44.272Z,100659.08
2018-10-02T07:34:47.717Z,100659.39
2018-10-02T07:39:51.158Z,100650.41
2018-10-02T07:44:54.621Z,100641.72
2018-10-02T07:49:58.027Z,100640.11
2018-10-02T07:55:01.486Z,100636.28
2018-10-02T08:00:05.694Z,100646.85
2018-10-02T08:05:09.092Z,100642.56
2018-10-02T08:10:12.531Z,100633.02
2018-10-02T08:15:15.953Z,100623.44
2018-10-02T08:20:19.386Z,100624.77
2018-10-02T08:25:22.842Z,100626.42
2018-10-02T08:30:26.417Z,100623.25
2018-10-02T08:35:29.783Z,100614.94
2018-10-02T08:40:33.212Z,100608.27
2018-10-02T08:45:36.664Z,100582.91
2018-10-02T08:50:40.169Z,100578.34
2018-10-02T08:55:43.550Z,100581.59
2018-10-02T09:00:47.029Z,100583.70
2018-10-02T09:05:50.458Z,100573.56
2018-10-02T09:10:53.889Z,100565.99
2018-10-02T09:15:57.478Z,100554.12
2018-10-02T09:21:00.755Z,100547.48
2018-10-02T09:26:04.185Z,100536.78
2018-10-02T09:31:13.076Z,100534.84
2018-10-02T09:36:21.705Z,100540.44
2018-10-02T09:41:30.445Z,100534.45
2018-10-02T09:46:33.880Z,100532.37
2018-10-02T09:51:37.360Z,100528.34
2018-10-02T09:56:41.827Z,100543.95
2018-10-02T10:01:50.269Z,100536.76
2018-10-02T10:06:53.699Z,100534.28
2018-10-02T10:11:57.125Z,100530.48
2018-10-02T10:17:00.655Z,100525.84
2018-10-02T10:22:04.005Z,100530.06
2018-10-02T10:27:07.556Z,100520.80
2018-10-02T10:32:11.328Z,100520.17
2018-10-02T10:37:14.769Z,100516.27
2018-10-02T10:42:18.209Z,100517.23
2018-10-02T10:47:21.694Z,100515.00
2018-10-02T10:52:25.180Z,100512.87
2018-10-02T10:57:28.589Z,100500.75
2018-10-02T11:02:32.014Z,100495.50
2018-10-02T11:07:35.440Z,100498.18
2018-10-02T11:12:38.974Z,100483.61
2018-10-02T11:17:42.524Z,100481.05
2018-10-02T11:22:45.929Z,100479.11
2018-10-02T11:27:49.340Z,100468.50
2018-10-02T11:32:52.818Z,100478.98
2018-10-02T11:37:56.238Z,100466.13
2018-10-02T11:42:59.682Z,100458.70
2018-10-02T11:48:03.126Z,100458.15
2018-10-02T11:53:06.839Z,100457.49
2018-10-02T11:58:10.318Z,100448.11
2018-10-02T12:03:13.877Z,100439.10
2018-10-02T12:08:17.295Z,100431.55
2018-10-02T12:13:20.830Z,100415.38
2018-10-02T12:18:24.216Z,100406.87
2018-10-02T12:23:27.664Z,100388.23
2018-10-02T12:28:31.079Z,100384.69
2018-10-02T12:33:34.495Z,100377.87
2018-10-02T12:38:37.958Z,100374.22
2018-10-02T12:43:41.341Z,100360.08
2018-10-02T12:48:44.769Z,100363.98
2018-10-02T12:53:48.201Z,100356.42
2018-10-02T12:58:51.665Z,100362.94
2018-10-02T13:03:55.133Z,100349.16
2018-10-02T13:08:58.576Z,100338.71
2018-10-02T13:14:01.999Z,100317.83
2018-10-02T13:19:05.428Z,100315.80
2018-10-02T13:24:08.881Z,100309.27
2018-10-02T13:29:12.355Z,100293.80
2018-10-02T13:34:15.845Z,100293.20
2018-10-02T13:39:19.255Z,100286.49
2018-10-02T13:44:22.685Z,100263.47
2018-10-02T13:49:26.122Z,100267.09
2018-10-02T13:54:29.581Z,100259.44
2018-10-02T13:59:33.324Z,100256.64
2018-10-02T14:04:36.728Z,100255.79
2018-10-02T14:09:40.253Z,100243.84
2018-10-02T14:14:43.845Z,100239.83
2018-10-02T14:19:47.250Z,100236.75
2018-10-02T14:35:55.632Z,100209.22
2018-10-02T14:40:59.057Z,100210.23
2018-10-02T14:46:02.601Z,100197.68
2018-10-02T14:51:06.582Z,100199.75
2018-10-02T14:56:10.278Z,100194.02
2018-10-02T15:01:13.733Z,100182.96
2018-10-02T15:06:17.294Z,100180.76
2018-10-02T15:11:21.670Z,100172.25
2018-10-02T15:16:25.332Z,100165.21
2018-10-02T15:21:28.920Z,100160.69
2018-10-02T15:26:32.405Z,100155.34
2018-10-02T15:31:36.139Z,100149.23
2018-10-02T15:36:39.577Z,100148.27
2018-10-02T15:41:43.425Z,100132.81
2018-10-02T15:46:46.925Z,100135.14
2018-10-02T15:51:50.348Z,100141.59
2018-10-02T15:56:53.964Z,100131.45
2018-10-02T16:01:57.469Z,100123.91
2018-10-02T16:07:01.081Z,100120.84
2018-10-02T16:12:04.601Z,100115.13
2018-10-02T16:17:08.038Z,100116.83
2018-10-02T16:22:11.508Z,100123.77
2018-10-02T16:27:15.073Z,100138.27
2018-10-02T16:32:18.489Z,100134.87
2018-10-02T16:37:22.006Z,100138.02
2018-10-02T16:42:25.502Z,100142.76
2018-10-02T16:47:28.965Z,100136.80
2018-10-02T16:52:32.432Z,100138.02
2018-10-02T16:57:35.894Z,100143.97
2018-10-02T17:02:39.325Z,100144.20
2018-10-02T17:07:42.773Z,100150.32
2018-10-02T17:12:46.223Z,100154.09
2018-10-02T17:17:49.811Z,100157.27
2018-10-02T17:22:54.007Z,100153.11
2018-10-02T17:27:57.945Z,100151.53
2018-10-02T17:33:03.828Z,100160.41
2018-10-02T17:38:08.075Z,100144.53
2018-10-02T17:43:11.618Z,100141.28
2018-10-02T17:48:15.148Z,100149.06
2018-10-02T17:53:18.813Z,100146.02
2018-10-02T17:58:22.337Z,100151.67
2018-10-02T18:03:26.551Z,100153.28
2018-10-02T18:08:30.217Z,100151.19
2018-10-02T18:13:34.011Z,100160.38
2018-10-02T18:18:37.589Z,100154.78
2018-10-02T18:23:41.228Z,100160.28
2018-10-02T18:28:44.699Z,100155.15
2018-10-02T18:33:49.213Z,100164.33
2018-10-02T18:38:52.707Z,100168.36
2018-10-02T18:43:56.185Z,100184.13
2018-10-02T18:48:59.767Z,100180.09
2018-10-02T18:54:03.190Z,100161.55
2018-10-02T18:59:06.732Z,100164.46
2018-10-02T19:04:10.326Z,100171.67
2018-10-02T19:09:17.330Z,100168.98
2018-10-02T19:14:21.393Z,100170.81
2018-10-02T19:19:31.708Z,100162.53
2018-10-02T19:24:35.360Z,100173.77
2018-10-02T19:29:38.912Z,100158.24
2018-10-02T19:34:43.667Z,100158.60
2018-10-02T19:39:47.205Z,100164.96
2018-10-02T19:44:50.707Z,100150.45
2018-10-02T19:49:54.348Z,100156.31
2018-10-02T19:54:57.895Z,100153.01
2018-10-02T20:00:01.465Z,100147.77
2018-10-02T20:05:06.075Z,100155.95
2018-10-02T20:10:09.604Z,100158.16
2018-10-02T20:15:13.072Z,100167.06
2018-10-02T20:20:16.630Z,100149.11
2018-10-02T20:25:20.427Z,100157.80
2018-10-02T20:30:26.162Z,100161.59
2018-10-02T20:35:29.981Z,100166.84
2018-10-02T20:40:33.517Z,100172.93
2018-10-02T20:45:36.944Z,100186.72
2018-10-02T20:50:40.499Z,100182.56
2018-10-02T20:55:44.185Z,100179.87
2018-10-02T21:00:47.912Z,100190.98
2018-10-02T21:05:51.342Z,100185.61
2018-10-02T21:10:55.147Z,100194.65
2018-10-02T21:15:58.565Z,100182.56
2018-10-02T21:21:01.972Z,100189.41
2018-10-02T21:26:05.381Z,100181.58
2018-10-02T21:31:09.114Z,100164.11
2018-10-02T21:36:13.450Z,100174.72
2018-10-02T21:41:16.965Z,100172.89
2018-10-02T21:46:20.376Z,100171.09
2018-10-02T21:51:23.874Z,100166.66
2018-10-02T21:56:27.423Z,100164.73
2018-10-02T22:01:31.198Z,100155.42
2018-10-02T22:06:34.720Z,100149.10
2018-10-02T22:11:38.194Z,100141.39
2018-10-02T22:16:41.644Z,100145.78
2018-10-02T22:21:45.073Z,100146.64
2018-10-02T22:26:48.550Z,100148.97
2018-10-02T22:31:52.012Z,100142.11
2018-10-02T22:36:55.464Z,100143.45
2018-10-02T22:41:58.910Z,100147.98
2018-10-02T22:47:02.485Z,100144.45
2018-10-02T22:52:06.071Z,100141.63
2018-10-02T22:57:09.566Z,100137.59
2018-10-02T23:02:13.044Z,100135.40
2018-10-02T23:07:16.446Z,100142.61
2018-10-02T23:12:19.856Z,100131.01
2018-10-02T23:17:23.264Z,100149.81
2018-10-02T23:22:26.693Z,100144.45
2018-10-02T23:27:30.098Z,100149.46
2018-10-02T23:32:33.524Z,100158.73
2018-10-02T23:37:36.956Z,100164.46
2018-10-02T23:42:40.377Z,100178.39
2018-10-02T23:47:43.832Z,100184.25
2018-10-02T23:52:47.232Z,100184.25
2018-10-02T23:57:50.632Z,100184.75
